MOOI WEER BOXTEL

Weerstation in Boxtel

Actuele weerinformatie en voorspellingen


Onweer radar Meer informatie blitzortung!


Regen radar Meer informatie rain snow radar


Meer informatie

Template documentation
and downloads

Weblog Hans on Experience

Profiel Hans Mestrum



Het weer levert geen direct gevaar op.    Er zijn geen waarschuwingen afgegeven.

METAR rapporten vliegvelden

   
EHEH - Eindhoven
Gewijzigd: 20-07-2018 14:25
Grotendeels bewolkt  
Grotendeels bewolkt  
   Wind: varieert 16.7 km/h
Wind: varieert 16.7 km/h
Temperatuur: 26°C
Dauwpunt: 9°C
Vochtigheid: 34%
Barometer: 1013 hPa
Bewolking: Grotendeels bewolkt
Zicht: meer dan 10 km
Bewolking: Grotendeels bewolkt 34000 ft
EHEH 201225Z AUTO VRB09KT 9999 BKN340 26/09 Q1013 BLU 30007KT CAVOK
EHVK - Volkel
Gewijzigd: 20-07-2018 14:25
Bewolking  
Bewolking  
   Wind: WNW 13 km/h
Wind: WNW 13 km/h
Temperatuur: 27°C
Dauwpunt: 10°C
Vochtigheid: 34%
Barometer: 1013 hPa
Bewolking: Bewolking
Zicht: meer dan 10 km
Bewolking: Bewolking 32000 ft
EHVK 201225Z AUTO 29007KT 220V360 9999 OVC320 27/10 Q1013 BLU 30004KT CAVOK
EBAW - Antwerpen
Gewijzigd: 20-07-2018 14:20
Helder  
Helder  
   Wind: WNW 14.8 km/h
Wind: WNW 14.8 km/h
Temperatuur: 26°C
Dauwpunt: 8°C
Vochtigheid: 32%
Barometer: 1014 hPa
Zicht: meer dan 10 km
Bewolking: Helder
EBAW 201220Z 30008KT 240V340 CAVOK 26/08 Q1014 NOSIG
EHBK - Maastricht
Gewijzigd: 20-07-2018 14:25
Gedeeltelijk bewolkt  
Gedeeltelijk bewolkt  
   Wind: NNO 9.3 km/h
Wind: NNO 9.3 km/h
Temperatuur: 27°C
Dauwpunt: 9°C
Vochtigheid: 32%
Barometer: 1013 hPa
Bewolking: Gedeeltelijk bewolkt
Zicht: meer dan 10 km
Bewolking: Gedeeltelijk bewolkt
EHBK 201225Z AUTO 03005KT 310V110 9999 NSC 27/09 Q1013 NOSIG
ELLX - Luxemburg
Gewijzigd: 20-07-2018 14:20
Helder  
Helder  
   Wind: WZW 18.5 km/h
Wind: WZW 18.5 km/h
Temperatuur: 27°C
Gevoelstemperatuur: 27°C
Dauwpunt: 13°C
Vochtigheid: 42%
Barometer: 1014 hPa
Zicht: meer dan 10 km
Bewolking: Helder
ELLX 201220Z 24010KT 200V280 CAVOK 27/13 Q1014 NOSIG
 

Script ontwikkeld door  Saratoga-weather.org Aangepast voor de template door  Weerstation Leuven

U vindt ons ook hier:

Het Weer Aktueel

UK Metoffice

European Weather Network

Weather Underground

AWEKAS

Citizen Weather Observer Program (CWOP)

HAMweather, WeatherForYou, PWS Weather

Apparatuur in gebruik:

Weerstation
Davis Vue ISS

Weerprogramma
Meteobridge

Weercomputer
Asus WL -330N3G

Webleverancier
Weerhuisje.nl

Davis Vue ISS

Meteobridge

Asus WL -330N3G

Weerhuisje.nl